Flight Track Log - Related Links

Times and Time Zones

All times are in EDT time to prevent confusion due to time zone crossing. See the TAM3376 flight status page for this flight to view local times or setup timezone preferences in your user account.

Time Position Orientation Groundspeed Altitude Reporting Facility
EDT Latitude Longitude Course Direction KTS MPH feet Rate Location/Type
Wed 02:47:00 PM -23.1572 -45.9038 62° Northeast  Level Estimated
Wed 02:48:00 PM -23.1112 -45.8097 62° Northeast  Level Estimated
Wed 02:49:00 PM -23.0651 -45.7158 62° Northeast  Level Estimated
Wed 02:50:00 PM -23.0190 -45.6218 62° Northeast  Level Estimated
Wed 02:51:00 PM -22.9729 -45.5280 62° Northeast  Level Estimated
Wed 02:52:00 PM -22.9266 -45.4342 62° Northeast  Level Estimated
Wed 02:53:00 PM -22.8797 -45.3390 62° Northeast  Level Estimated
Wed 02:54:00 PM -22.8326 -45.2439 62° Northeast  Level Estimated
Wed 02:55:00 PM -22.7855 -45.1489 62° Northeast  Level Estimated
Wed 02:56:00 PM -22.7384 -45.0540 62° Northeast  Level Estimated
Wed 02:57:00 PM -22.6912 -44.9591 62° Northeast  Level Estimated
Wed 02:58:00 PM -22.6439 -44.8642 62° Northeast  Level Estimated
Wed 02:59:00 PM -22.5966 -44.7695 62° Northeast  Level Estimated
Wed 03:00:00 PM -22.5492 -44.6748 62° Northeast  Level Estimated
Wed 03:01:00 PM -22.5018 -44.5801 62° Northeast  Level Estimated
Wed 03:02:00 PM -22.4543 -44.4856 61° Northeast  Level Estimated
Wed 03:03:00 PM -22.4067 -44.3911 61° Northeast  Level Estimated
Wed 03:04:00 PM -22.3591 -44.2966 61° Northeast  Level Estimated
Wed 03:05:00 PM -22.3115 -44.2023 61° Northeast  Level Estimated
Wed 03:06:00 PM -22.2638 -44.1079 61° Northeast  Level Estimated
Wed 03:07:00 PM -22.2160 -44.0137 61° Northeast  Level Estimated
Wed 03:08:00 PM -22.1682 -43.9195 61° Northeast  Level Estimated
Wed 03:09:00 PM -22.1203 -43.8254 61° Northeast  Level Estimated
Wed 03:10:00 PM -22.0724 -43.7314 61° Northeast  Level Estimated
Wed 03:11:00 PM -22.0244 -43.6374 61° Northeast  Level Estimated
Wed 03:12:00 PM -21.9764 -43.5434 61° Northeast  Level Estimated
Wed 03:13:00 PM -21.9283 -43.4496 61° Northeast  Level Estimated
Wed 03:14:00 PM -21.8802 -43.3558 61° Northeast  Level Estimated
Wed 03:15:00 PM -21.8320 -43.2621 61° Northeast  Level Estimated
Wed 03:16:00 PM -21.7837 -43.1684 61° Northeast  Level Estimated
Wed 03:17:00 PM -21.7354 -43.0748 61° Northeast  Level Estimated
Wed 03:18:00 PM -21.6871 -42.9812 61° Northeast  Level Estimated
Wed 03:19:00 PM -21.6387 -42.8878 61° Northeast  Level Estimated
Wed 03:20:00 PM -21.5902 -42.7943 61° Northeast  Level Estimated
Wed 03:21:00 PM -21.5417 -42.7010 61° Northeast  Level Estimated
Wed 03:22:00 PM -21.4932 -42.6077 61° Northeast  Level Estimated
Wed 03:23:00 PM -21.4446 -42.5145 61° Northeast  Level Estimated
Wed 03:24:00 PM -21.3959 -42.4213 61° Northeast  Level Estimated
Wed 03:25:00 PM -21.3472 -42.3282 61° Northeast  Level Estimated
Wed 03:26:00 PM -21.2984 -42.2351 61° Northeast  Level Estimated
Wed 03:27:00 PM -21.2496 -42.1422 61° Northeast  Level Estimated
Wed 03:28:00 PM -21.2008 -42.0492 61° Northeast  Level Estimated
Wed 03:29:00 PM -21.1518 -41.9564 61° Northeast  Level Estimated
Wed 03:30:00 PM -21.1029 -41.8636 61° Northeast  Level Estimated
Wed 03:31:00 PM -21.0539 -41.7708 60° Northeast  Level Estimated
Wed 03:32:00 PM -21.0048 -41.6782 60° Northeast  Level Estimated
Wed 03:33:00 PM -20.9557 -41.5855 60° Northeast  Level Estimated
Wed 03:34:00 PM -20.9065 -41.4930 60° Northeast  Level Estimated
Wed 03:35:00 PM -20.8573 -41.4005 60° Northeast  Level Estimated
Wed 03:36:00 PM -20.8080 -41.3080 60° Northeast  Level Estimated
Wed 03:37:00 PM -20.7587 -41.2157 60° Northeast  Level Estimated
Wed 03:38:00 PM -20.7093 -41.1234 60° Northeast  Level Estimated
Wed 03:39:00 PM -20.6599 -41.0311 60° Northeast  Level Estimated
Wed 03:40:00 PM -20.6105 -40.9389 60° Northeast  Level Estimated
Wed 03:41:00 PM -20.5609 -40.8468 60° Northeast  Level Estimated
Wed 03:42:00 PM -20.5114 -40.7547 60° Northeast  Level Estimated
Wed 03:43:00 PM -20.4618 -40.6627 60° Northeast  Level Estimated
Wed 03:44:00 PM -20.4121 -40.5708 60° Northeast  Level Estimated
Wed 03:45:00 PM -20.3624 -40.4789 60° Northeast  Level Estimated
Wed 03:46:00 PM -20.3127 -40.3870 60° Northeast  Level Estimated
Wed 03:47:00 PM -20.2629 -40.2952 60° Northeast  Level Estimated
Wed 03:48:00 PM -20.2581 -40.2864 60° Northeast  Level Estimated
Wed 03:49:00 PM -20.2581 -40.2864 13° North  Level Estimated
Wed 03:50:00 PM -20.2581 -40.2864 13° North  Level Estimated
Wed 03:51:00 PM -20.2581 -40.2864 13° North  Level Estimated
Wed 03:52:00 PM -20.2581 -40.2864 13° North  Level Estimated
Wed 03:53:00 PM -20.2581 -40.2864 13° North  Level Estimated
Wed 03:54:00 PM -20.2581 -40.2864 13° North  Level Estimated
Wed 03:55:00 PM -20.2581 -40.2864 13° North  Level Estimated

Login

Don't have an account? Register now (free) for customized features, flight alerts, and more!